createdAt,value
2019-03-10T00:00:32.216Z,66.11
2019-03-10T00:03:01.484Z,67.24
2019-03-10T00:05:30.686Z,66.97
2019-03-10T00:08:00.506Z,67.33
2019-03-10T00:10:29.692Z,67.33
2019-03-10T00:12:59.084Z,67.62
2019-03-10T00:15:28.213Z,67.62
2019-03-10T00:17:57.485Z,67.73
2019-03-10T00:20:26.758Z,67.73
2019-03-10T00:22:56.009Z,67.32
2019-03-10T00:25:25.193Z,67.03
2019-03-10T00:27:54.503Z,66.82
2019-03-10T00:30:23.913Z,66.52
2019-03-10T00:32:53.079Z,66.09
2019-03-10T00:35:22.254Z,66.09
2019-03-10T00:37:51.434Z,65.92
2019-03-10T00:40:46.253Z,65.46
2019-03-10T00:43:50.542Z,65.46
2019-03-10T00:46:45.760Z,64.78
2019-03-10T00:49:33.311Z,64.78
2019-03-10T00:52:07.755Z,64.81
2019-03-10T00:54:36.950Z,64.39
2019-03-10T00:57:06.133Z,64.28
2019-03-10T00:59:35.302Z,64.24
2019-03-10T01:02:04.573Z,63.39
2019-03-10T01:04:33.761Z,63.33
2019-03-10T01:07:02.998Z,63.12
2019-03-10T01:09:32.176Z,62.95
2019-03-10T01:12:02.935Z,62.95
2019-03-10T01:14:32.728Z,62.43
2019-03-10T01:17:03.759Z,62.30
2019-03-10T01:19:33.483Z,61.98
2019-03-10T01:22:02.743Z,61.98
2019-03-10T01:24:31.919Z,62.41
2019-03-10T01:27:01.967Z,62.63
2019-03-10T01:29:31.151Z,62.63
2019-03-10T01:32:24.381Z,62.48
2019-03-10T01:35:05.109Z,62.48
2019-03-10T01:37:34.302Z,64.70
2019-03-10T01:40:03.969Z,69.15
2019-03-10T01:42:33.166Z,69.15
2019-03-10T01:45:02.344Z,69.78
2019-03-10T01:47:31.539Z,71.23
2019-03-10T01:50:00.726Z,72.80
2019-03-10T01:52:29.911Z,74.48
2019-03-10T01:54:59.113Z,74.48
2019-03-10T01:57:28.286Z,75.68
2019-03-10T01:59:57.449Z,76.59
2019-03-10T02:02:26.933Z,77.43
2019-03-10T02:04:56.111Z,77.79
2019-03-10T02:07:25.343Z,78.31
2019-03-10T02:09:54.485Z,78.31
2019-03-10T02:12:23.667Z,78.80
2019-03-10T02:14:52.865Z,79.06
2019-03-10T02:17:22.043Z,79.17
2019-03-10T02:19:51.267Z,79.51
2019-03-10T02:22:20.463Z,79.87
2019-03-10T02:24:49.639Z,80.56
2019-03-10T02:27:36.521Z,81.35
2019-03-10T02:30:14.921Z,81.73
2019-03-10T02:32:44.101Z,82.26
2019-03-10T02:35:13.349Z,82.19
2019-03-10T02:37:42.616Z,83.24
2019-03-10T02:40:12.345Z,83.15
2019-03-10T02:42:41.670Z,83.50
2019-03-10T02:45:11.379Z,84.43
2019-03-10T02:47:40.560Z,84.40
2019-03-10T02:50:10.708Z,84.55
2019-03-10T02:52:39.918Z,84.75
2019-03-10T02:55:09.425Z,85.60
2019-03-10T02:57:38.612Z,85.38
2019-03-10T03:00:10.726Z,85.88
2019-03-10T03:02:39.929Z,85.92
2019-03-10T03:05:10.717Z,86.15
2019-03-10T03:07:39.924Z,86.59
2019-03-10T03:10:13.769Z,87.33
2019-03-10T03:12:42.961Z,87.39
2019-03-10T03:15:12.277Z,87.55
2019-03-10T03:17:41.526Z,87.28
2019-03-10T03:20:12.438Z,87.52
2019-03-10T03:22:41.726Z,87.51
2019-03-10T03:25:12.169Z,87.79
2019-03-10T03:27:41.679Z,87.59
2019-03-10T03:30:16.015Z,87.36
2019-03-10T03:32:45.257Z,86.98
2019-03-10T03:35:46.878Z,86.12
2019-03-10T03:38:36.881Z,86.13
2019-03-10T03:41:20.102Z,85.95
2019-03-10T03:43:49.293Z,85.71
2019-03-10T03:46:18.463Z,85.18
2019-03-10T03:48:47.665Z,85.34
2019-03-10T03:51:16.891Z,85.74
2019-03-10T03:53:46.067Z,86.47
2019-03-10T03:56:17.668Z,86.99
2019-03-10T03:58:46.842Z,88.00
2019-03-10T04:01:20.132Z,87.99
2019-03-10T04:03:49.296Z,88.50
2019-03-10T04:06:18.488Z,89.44
2019-03-10T04:08:49.877Z,89.53
2019-03-10T04:11:19.054Z,88.57
2019-03-10T04:13:48.157Z,89.05
2019-03-10T04:16:17.337Z,89.36
2019-03-10T04:18:46.509Z,89.57
2019-03-10T04:21:15.701Z,89.60
2019-03-10T04:23:44.888Z,90.37
2019-03-10T04:26:14.053Z,90.87
2019-03-10T04:28:43.248Z,90.80
2019-03-10T04:31:12.449Z,90.94
2019-03-10T04:33:41.806Z,91.07
2019-03-10T04:36:10.995Z,91.38
2019-03-10T04:38:40.252Z,92.29
2019-03-10T04:41:09.408Z,92.67
2019-03-10T04:43:38.581Z,92.89
2019-03-10T04:46:07.794Z,93.10
2019-03-10T04:48:36.969Z,93.50
2019-03-10T04:51:06.146Z,93.33
2019-03-10T04:53:35.326Z,93.54
2019-03-10T04:56:11.885Z,93.37
2019-03-10T04:58:42.719Z,93.08
2019-03-10T05:01:15.849Z,91.65
2019-03-10T05:03:45.067Z,91.52
2019-03-10T05:06:14.252Z,91.42
2019-03-10T05:08:43.425Z,91.07
2019-03-10T05:11:12.608Z,91.18
2019-03-10T05:13:41.791Z,91.69
2019-03-10T05:16:10.985Z,91.50
2019-03-10T05:18:40.165Z,91.45
2019-03-10T05:21:09.259Z,91.47
2019-03-10T05:23:40.182Z,91.42
2019-03-10T05:26:09.625Z,91.20
2019-03-10T05:28:41.847Z,91.43
2019-03-10T05:31:11.048Z,91.76
2019-03-10T05:33:40.225Z,91.71
2019-03-10T05:36:09.401Z,91.73
2019-03-10T05:38:38.581Z,92.01
2019-03-10T05:41:07.786Z,92.63
2019-03-10T05:43:36.973Z,92.47
2019-03-10T05:46:06.210Z,92.87
2019-03-10T05:48:35.381Z,93.20
2019-03-10T05:51:04.596Z,93.66
2019-03-10T05:53:33.795Z,94.71
2019-03-10T05:56:02.981Z,95.39
2019-03-10T05:58:32.145Z,96.20
2019-03-10T06:01:01.312Z,96.07
2019-03-10T06:03:30.499Z,95.86
2019-03-10T06:05:59.780Z,95.78
2019-03-10T06:08:28.950Z,95.60
2019-03-10T06:10:58.136Z,95.34
2019-03-10T06:13:27.429Z,95.43
2019-03-10T06:15:56.703Z,95.52
2019-03-10T06:18:25.886Z,95.86
2019-03-10T06:20:55.089Z,96.38
2019-03-10T06:23:24.259Z,96.85
2019-03-10T06:25:53.431Z,97.36
2019-03-10T06:28:22.601Z,97.46
2019-03-10T06:30:51.781Z,97.16
2019-03-10T06:33:20.983Z,97.32
2019-03-10T06:35:50.212Z,97.57
2019-03-10T06:38:19.407Z,97.84
2019-03-10T06:40:48.511Z,98.31
2019-03-10T06:43:17.697Z,98.24
2019-03-10T06:45:46.876Z,98.41
2019-03-10T06:48:16.045Z,98.43
2019-03-10T06:50:45.246Z,98.33
2019-03-10T06:53:14.434Z,98.51
2019-03-10T06:55:43.639Z,98.82
2019-03-10T06:58:12.823Z,99.24
2019-03-10T07:00:41.993Z,99.23
2019-03-10T07:03:11.194Z,99.23
2019-03-10T07:05:40.374Z,99.71
2019-03-10T07:08:09.563Z,99.90
2019-03-10T07:10:38.728Z,99.69
2019-03-10T07:13:07.930Z,99.09
2019-03-10T07:15:37.118Z,99.18
2019-03-10T07:18:06.288Z,99.15
2019-03-10T07:20:35.486Z,98.97
2019-03-10T07:23:06.296Z,99.36
2019-03-10T07:25:35.454Z,100.00
2019-03-10T07:28:15.099Z,100.00
2019-03-10T07:30:48.847Z,100.00
2019-03-10T07:33:31.960Z,100.00
2019-03-10T07:36:12.066Z,100.00
2019-03-10T07:38:57.840Z,100.00
2019-03-10T07:41:28.658Z,100.00
2019-03-10T07:44:15.781Z,100.00
2019-03-10T07:46:49.462Z,100.00
2019-03-10T07:49:32.140Z,100.00
2019-03-10T07:52:05.918Z,100.00
2019-03-10T07:54:36.728Z,100.00
2019-03-10T07:57:22.582Z,100.00
2019-03-10T07:59:53.411Z,100.00
2019-03-10T08:02:42.319Z,100.00
2019-03-10T08:05:37.206Z,100.00
2019-03-10T08:08:08.016Z,100.00
2019-03-10T08:10:51.062Z,100.00
2019-03-10T08:13:37.990Z,100.00
2019-03-10T08:16:24.831Z,100.00
2019-03-10T08:19:01.108Z,100.00
2019-03-10T08:21:40.830Z,100.00
2019-03-10T08:24:11.656Z,100.00
2019-03-10T08:27:00.751Z,100.00
2019-03-10T08:29:31.556Z,100.00
2019-03-10T08:32:02.378Z,100.00
2019-03-10T08:34:49.306Z,100.00
2019-03-10T08:37:36.610Z,100.00
2019-03-10T08:40:19.781Z,100.00
2019-03-10T08:43:07.039Z,100.00
2019-03-10T08:45:37.838Z,100.00
2019-03-10T08:48:08.648Z,100.00
2019-03-10T08:50:42.479Z,100.00
2019-03-10T08:53:13.305Z,100.00
2019-03-10T08:55:58.913Z,100.00
2019-03-10T08:58:29.832Z,100.00
2019-03-10T09:01:00.678Z,100.00
2019-03-10T09:03:31.495Z,100.00
2019-03-10T09:06:14.332Z,100.00
2019-03-10T09:08:57.176Z,100.00
2019-03-10T09:11:30.988Z,100.00
2019-03-10T09:14:01.836Z,100.00
2019-03-10T09:16:48.911Z,100.00
2019-03-10T09:19:25.214Z,100.00
2019-03-10T09:22:01.947Z,100.00
2019-03-10T09:24:48.944Z,100.00
2019-03-10T09:27:22.737Z,100.00
2019-03-10T09:30:09.750Z,100.00
2019-03-10T09:32:52.656Z,100.00
2019-03-10T09:35:38.251Z,100.00
2019-03-10T09:38:15.019Z,100.00
2019-03-10T09:40:48.730Z,100.00
2019-03-10T09:43:19.557Z,100.00
2019-03-10T09:45:50.298Z,100.00
2019-03-10T09:48:29.920Z,100.00
2019-03-10T09:51:09.663Z,100.00
2019-03-10T09:53:40.492Z,100.00
2019-03-10T09:56:17.284Z,100.00
2019-03-10T09:58:57.189Z,100.00
2019-03-10T10:01:42.966Z,100.00
2019-03-10T10:04:16.714Z,100.00
2019-03-10T10:06:53.315Z,100.00
2019-03-10T10:09:24.149Z,100.00
2019-03-10T10:12:00.591Z,100.00
2019-03-10T10:14:31.418Z,100.00
2019-03-10T10:17:07.989Z,100.00
2019-03-10T10:19:47.644Z,100.00
2019-03-10T10:22:23.990Z,100.00
2019-03-10T10:25:03.792Z,100.00
2019-03-10T10:27:37.240Z,100.00
2019-03-10T10:30:29.534Z,100.00
2019-03-10T10:33:00.359Z,100.00
2019-03-10T10:35:37.017Z,100.00
2019-03-10T10:38:18.675Z,100.00
2019-03-10T10:40:59.895Z,100.00
2019-03-10T10:43:39.720Z,100.00
2019-03-10T10:46:16.923Z,100.00
2019-03-10T10:48:50.583Z,100.00
2019-03-10T10:51:29.715Z,100.00
2019-03-10T10:54:00.123Z,100.00
2019-03-10T10:56:30.972Z,99.98
2019-03-10T10:59:07.726Z,99.98
2019-03-10T11:01:41.039Z,99.17
2019-03-10T11:04:17.738Z,96.43
2019-03-10T11:07:06.121Z,96.43
2019-03-10T11:09:43.193Z,95.42
2019-03-10T11:12:19.855Z,94.57
2019-03-10T11:14:53.847Z,94.28
2019-03-10T11:17:42.945Z,93.46
2019-03-10T11:20:13.855Z,93.46
2019-03-10T11:22:47.610Z,93.80
2019-03-10T11:25:24.343Z,94.03
2019-03-10T11:27:55.179Z,94.65
2019-03-10T11:30:42.591Z,94.81
2019-03-10T11:33:22.247Z,94.81
2019-03-10T11:35:53.666Z,95.06
2019-03-10T11:38:42.902Z,98.91
2019-03-10T11:41:16.716Z,98.91
2019-03-10T11:44:17.044Z,100.00
2019-03-10T11:46:48.142Z,100.00
2019-03-10T11:49:22.535Z,99.71
2019-03-10T11:52:02.100Z,99.71
2019-03-10T11:54:36.977Z,97.27
2019-03-10T11:57:16.779Z,97.27
2019-03-10T11:59:50.471Z,92.76
2019-03-10T12:02:26.973Z,87.95
2019-03-10T12:05:00.598Z,85.39
2019-03-10T12:08:05.005Z,84.05
2019-03-10T12:10:34.205Z,84.05
2019-03-10T12:13:03.387Z,82.33
2019-03-10T12:15:32.568Z,81.63
2019-03-10T12:18:01.750Z,81.90
2019-03-10T12:20:30.938Z,82.51
2019-03-10T12:23:00.203Z,82.51
2019-03-10T12:25:29.440Z,81.79
2019-03-10T12:27:58.613Z,82.34
2019-03-10T12:30:27.777Z,82.34
2019-03-10T12:32:56.968Z,82.41
2019-03-10T12:35:34.036Z,82.38
2019-03-10T12:37:57.037Z,82.50
2019-03-10T12:40:26.272Z,82.34
2019-03-10T12:42:55.441Z,82.29
2019-03-10T12:45:24.628Z,82.14
2019-03-10T12:47:53.854Z,82.37
2019-03-10T12:50:23.159Z,82.69
2019-03-10T12:52:52.344Z,82.61
2019-03-10T12:55:21.511Z,82.46
2019-03-10T12:57:50.696Z,82.60
2019-03-10T13:00:19.952Z,82.54
2019-03-10T13:02:49.238Z,82.54
2019-03-10T13:05:18.414Z,82.54
2019-03-10T13:07:47.603Z,83.25
2019-03-10T13:10:16.775Z,83.25
2019-03-10T13:12:45.977Z,83.38
2019-03-10T13:15:15.256Z,83.97
2019-03-10T13:17:44.424Z,83.97
2019-03-10T13:20:13.832Z,84.78
2019-03-10T13:22:43.171Z,84.45
2019-03-10T13:25:13.314Z,86.61
2019-03-10T13:27:42.577Z,86.61
2019-03-10T13:30:14.559Z,87.10
2019-03-10T13:32:44.661Z,86.51
2019-03-10T13:35:14.339Z,86.72
2019-03-10T13:37:43.596Z,87.83
2019-03-10T13:40:14.667Z,86.96
2019-03-10T13:43:01.848Z,87.07
2019-03-10T13:45:31.054Z,87.09
2019-03-10T13:48:00.272Z,87.78
2019-03-10T13:50:29.474Z,87.79
2019-03-10T13:52:58.647Z,86.82
2019-03-10T13:55:27.831Z,86.56
2019-03-10T13:57:57.023Z,86.46
2019-03-10T14:00:26.835Z,86.41
2019-03-10T14:02:56.107Z,86.28
2019-03-10T14:05:25.456Z,87.10
2019-03-10T14:07:54.649Z,88.08
2019-03-10T14:10:23.822Z,88.79
2019-03-10T14:12:53.077Z,89.16
2019-03-10T14:15:22.345Z,89.73
2019-03-10T14:17:51.540Z,90.43
2019-03-10T14:20:20.874Z,90.12
2019-03-10T14:22:50.038Z,89.11
2019-03-10T14:25:19.294Z,89.16
2019-03-10T14:27:48.488Z,88.34
2019-03-10T14:30:18.804Z,87.61
2019-03-10T14:32:48.238Z,87.77
2019-03-10T14:35:17.777Z,89.43
2019-03-10T14:37:46.962Z,91.20
2019-03-10T14:40:17.686Z,91.31
2019-03-10T14:42:46.896Z,90.75
2019-03-10T14:45:17.621Z,90.99
2019-03-10T14:47:46.983Z,92.13
2019-03-10T14:50:19.680Z,92.25
2019-03-10T14:52:48.941Z,92.31
2019-03-10T14:55:19.572Z,92.79
2019-03-10T14:57:48.773Z,93.04
2019-03-10T15:00:28.613Z,93.52
2019-03-10T15:02:57.812Z,94.33
2019-03-10T15:05:27.009Z,94.79
2019-03-10T15:07:56.171Z,93.84
2019-03-10T15:10:25.355Z,93.21
2019-03-10T15:12:54.535Z,92.64
2019-03-10T15:15:23.848Z,91.65
2019-03-10T15:17:53.908Z,91.93
2019-03-10T15:20:23.150Z,91.70
2019-03-10T15:22:52.344Z,90.95
2019-03-10T15:25:24.943Z,91.61
2019-03-10T15:27:53.626Z,91.84
2019-03-10T15:30:24.360Z,91.99
2019-03-10T15:32:53.679Z,92.50
2019-03-10T15:35:22.975Z,92.88
2019-03-10T15:37:52.153Z,93.19
2019-03-10T15:40:21.378Z,93.44
2019-03-10T15:42:50.552Z,93.75
2019-03-10T15:45:20.049Z,92.99
2019-03-10T15:47:49.235Z,92.52
2019-03-10T15:50:26.485Z,91.73
2019-03-10T15:52:55.774Z,92.08
2019-03-10T15:55:24.937Z,92.58
2019-03-10T15:57:54.184Z,92.68
2019-03-10T16:00:28.177Z,93.09
2019-03-10T16:02:57.458Z,94.06
2019-03-10T16:05:26.964Z,94.36
2019-03-10T16:07:56.210Z,93.62
2019-03-10T16:10:25.396Z,91.90
2019-03-10T16:12:54.561Z,90.65
2019-03-10T16:15:25.888Z,90.01
2019-03-10T16:17:55.210Z,89.49
2019-03-10T16:20:24.390Z,89.21
2019-03-10T16:22:55.346Z,88.79
2019-03-10T16:25:24.431Z,88.47
2019-03-10T16:27:53.624Z,88.04
2019-03-10T16:30:25.215Z,86.82
2019-03-10T16:32:54.470Z,85.65
2019-03-10T16:35:23.706Z,85.08
2019-03-10T16:37:52.913Z,83.80
2019-03-10T16:40:22.902Z,84.75
2019-03-10T16:42:52.081Z,86.40
2019-03-10T16:45:22.187Z,85.60
2019-03-10T16:47:51.351Z,85.67
2019-03-10T16:50:24.702Z,84.33
2019-03-10T16:52:53.926Z,82.50
2019-03-10T16:55:23.091Z,81.94
2019-03-10T16:57:52.377Z,82.23
2019-03-10T17:00:21.773Z,82.87
2019-03-10T17:03:09.208Z,83.04
2019-03-10T17:05:38.455Z,82.95
2019-03-10T17:08:07.622Z,83.50
2019-03-10T17:10:36.786Z,83.63
2019-03-10T17:13:05.978Z,83.85
2019-03-10T17:15:35.208Z,83.58
2019-03-10T17:18:04.473Z,83.44
2019-03-10T17:20:33.652Z,83.90
2019-03-10T17:23:02.820Z,83.78
2019-03-10T17:25:31.993Z,83.55
2019-03-10T17:28:01.168Z,83.42
2019-03-10T17:30:30.368Z,83.54
2019-03-10T17:32:59.525Z,83.30
2019-03-10T17:35:28.698Z,83.26
2019-03-10T17:37:57.870Z,83.34
2019-03-10T17:40:27.052Z,83.33
2019-03-10T17:43:14.339Z,82.97
2019-03-10T17:45:43.587Z,82.88
2019-03-10T17:48:13.242Z,82.92
2019-03-10T17:50:42.618Z,82.84
2019-03-10T17:53:11.851Z,82.70
2019-03-10T17:55:41.038Z,82.39
2019-03-10T17:58:10.255Z,82.69
2019-03-10T18:00:40.301Z,82.82
2019-03-10T18:03:09.469Z,82.47
2019-03-10T18:05:38.679Z,82.16
2019-03-10T18:08:07.930Z,82.21
2019-03-10T18:10:37.119Z,81.87
2019-03-10T18:13:06.640Z,81.98
2019-03-10T18:15:35.840Z,82.05
2019-03-10T18:18:05.113Z,82.45
2019-03-10T18:20:34.287Z,81.68
2019-03-10T18:23:03.471Z,81.91
2019-03-10T18:25:32.649Z,79.63
2019-03-10T18:28:02.393Z,78.01
2019-03-10T18:30:31.567Z,75.53
2019-03-10T18:33:00.737Z,74.90
2019-03-10T18:35:29.983Z,74.01
2019-03-10T18:37:59.177Z,73.68
2019-03-10T18:40:28.995Z,73.50
2019-03-10T18:42:58.258Z,73.19
2019-03-10T18:45:27.429Z,73.69
2019-03-10T18:47:56.618Z,73.59
2019-03-10T18:50:27.599Z,73.85
2019-03-10T18:52:56.766Z,73.76
2019-03-10T18:55:25.957Z,73.65
2019-03-10T18:57:55.133Z,73.59
2019-03-10T19:00:25.638Z,72.83
2019-03-10T19:02:54.898Z,72.77
2019-03-10T19:05:24.079Z,72.94
2019-03-10T19:07:53.334Z,71.89
2019-03-10T19:10:22.513Z,71.50
2019-03-10T19:12:51.695Z,71.11
2019-03-10T19:15:25.134Z,70.89
2019-03-10T19:17:54.617Z,70.53
2019-03-10T19:20:23.852Z,69.98
2019-03-10T19:22:53.043Z,68.97
2019-03-10T19:25:22.214Z,68.83
2019-03-10T19:27:51.390Z,68.05
2019-03-10T19:30:22.447Z,67.65
2019-03-10T19:32:51.703Z,67.99
2019-03-10T19:35:20.950Z,67.27
2019-03-10T19:37:50.136Z,67.56
2019-03-10T19:40:37.677Z,66.99
2019-03-10T19:43:25.042Z,67.15
2019-03-10T19:45:54.214Z,67.28
2019-03-10T19:48:23.518Z,67.36
2019-03-10T19:51:10.866Z,67.58
2019-03-10T19:53:41.352Z,67.82
2019-03-10T19:56:10.513Z,67.43
2019-03-10T19:58:39.737Z,68.00
2019-03-10T20:01:08.909Z,67.82
2019-03-10T20:03:38.105Z,67.31
2019-03-10T20:06:07.298Z,67.14
2019-03-10T20:08:36.471Z,65.98
2019-03-10T20:11:05.669Z,64.75
2019-03-10T20:13:34.837Z,64.05
2019-03-10T20:16:04.056Z,64.37
2019-03-10T20:18:33.234Z,63.83
2019-03-10T20:21:02.431Z,61.82
2019-03-10T20:23:31.598Z,60.69
2019-03-10T20:26:00.774Z,59.15
2019-03-10T20:28:29.982Z,57.19
2019-03-10T20:30:59.108Z,55.88
2019-03-10T20:33:28.287Z,55.04
2019-03-10T20:35:57.467Z,54.87
2019-03-10T20:38:28.148Z,55.36
2019-03-10T20:40:57.347Z,55.46
2019-03-10T20:43:26.516Z,55.19
2019-03-10T20:45:55.726Z,55.12
2019-03-10T20:48:24.893Z,54.62
2019-03-10T20:50:54.123Z,54.88
2019-03-10T20:53:23.301Z,53.32
2019-03-10T20:55:52.463Z,53.79
2019-03-10T20:58:21.659Z,54.02
2019-03-10T21:00:50.834Z,53.98
2019-03-10T21:03:20.001Z,54.34
2019-03-10T21:05:49.181Z,54.37
2019-03-10T21:08:18.383Z,54.72
2019-03-10T21:10:47.579Z,54.77
2019-03-10T21:13:16.778Z,55.33
2019-03-10T21:15:45.958Z,56.23
2019-03-10T21:18:15.138Z,56.52
2019-03-10T21:20:44.340Z,56.42
2019-03-10T21:23:13.528Z,56.23
2019-03-10T21:25:42.708Z,56.43
2019-03-10T21:28:11.882Z,57.04
2019-03-10T21:30:41.081Z,57.01
2019-03-10T21:33:10.297Z,57.21
2019-03-10T21:35:39.482Z,58.13
2019-03-10T21:38:08.650Z,56.94
2019-03-10T21:40:55.964Z,57.70
2019-03-10T21:43:43.113Z,57.56
2019-03-10T21:46:12.272Z,57.48
2019-03-10T21:48:41.452Z,56.29
2019-03-10T21:51:10.701Z,56.39
2019-03-10T21:53:39.879Z,56.88
2019-03-10T21:56:09.048Z,56.23
2019-03-10T21:58:38.247Z,55.09
2019-03-10T22:01:07.423Z,55.37
2019-03-10T22:03:36.616Z,56.11
2019-03-10T22:06:05.855Z,56.61
2019-03-10T22:08:35.055Z,56.87
2019-03-10T22:11:04.342Z,57.81
2019-03-10T22:13:33.545Z,57.90
2019-03-10T22:16:02.734Z,58.89
2019-03-10T22:18:31.897Z,59.40
2019-03-10T22:21:01.098Z,56.83
2019-03-10T22:23:30.279Z,56.41
2019-03-10T22:25:59.451Z,57.30
2019-03-10T22:28:28.632Z,57.99
2019-03-10T22:30:57.828Z,58.91
2019-03-10T22:33:27.031Z,61.46
2019-03-10T22:35:56.206Z,61.64
2019-03-10T22:38:43.481Z,61.75
2019-03-10T22:41:12.659Z,61.85
2019-03-10T22:43:59.861Z,60.63
2019-03-10T22:46:29.040Z,60.18
2019-03-10T22:48:58.209Z,60.72
2019-03-10T22:51:27.386Z,60.96
2019-03-10T22:53:56.548Z,61.60
2019-03-10T22:56:25.734Z,62.37
2019-03-10T22:58:54.904Z,61.55
2019-03-10T23:01:24.126Z,61.72
2019-03-10T23:03:53.265Z,62.25
2019-03-10T23:06:22.445Z,62.59
2019-03-10T23:08:51.627Z,63.14
2019-03-10T23:11:20.813Z,65.22
2019-03-10T23:13:50.021Z,67.37
2019-03-10T23:16:19.181Z,69.65
2019-03-10T23:18:48.349Z,70.82
2019-03-10T23:21:17.526Z,71.61
2019-03-10T23:23:46.703Z,72.28
2019-03-10T23:26:15.901Z,72.61
2019-03-10T23:28:45.086Z,71.27
2019-03-10T23:31:14.249Z,70.95
2019-03-10T23:33:43.422Z,71.37
2019-03-10T23:36:12.595Z,69.57
2019-03-10T23:38:41.795Z,68.67
2019-03-10T23:41:10.966Z,68.54
2019-03-10T23:43:40.140Z,68.02
2019-03-10T23:46:09.310Z,68.14
2019-03-10T23:48:38.496Z,67.37
2019-03-10T23:51:07.711Z,67.53
2019-03-10T23:53:36.880Z,66.30
2019-03-10T23:56:06.190Z,66.87
2019-03-10T23:58:35.391Z,66.73
